Shakopee, MN

10:52 PM CDT on April 18, 2015 (GMT -0500)
KMNSHAKO1 | | Change Station
CLOSE
Current Station
Personal Weather Station
Location: Shakopee, MN
Elevation: 807 ft
Nearby Weather Stations

Elev 807 ft 44.78 °N, 93.53 °W | Updated 5 seconds ago

Overcast
Overcast
58.6 °F
Feels Like 58.6 °F
N
4.7
Wind Variable Wind from ENE
Gusts 4.7 mph

Today
High -- | Low -- °F
--% Chance of Precip.
Yesterday
High -- | Low -- °F
Precip. -- in
6:24 AM 8:02 PM
New Moon, 0% visible
Pressure 29.90 in
Visibility 8.0 miles
Clouds Overcast 8000 ft
Dew Point 52 °F
Humidity 79%
Rainfall 0.04 in
Snow Depth Not available.
UV 0 out of 12
Pollen 8.50 out of 12
Air Quality Not available.
Flu Activity Local Activity
METAR KFCM 190253Z 16007KT 8SM -RA OVC080 16/13 A2990 RMK AO2 RAB24 SLP124 P0000 60000 T01560128 51005

More Conditions Fewer Conditions

Pressure 29.90 in
Visibility 8.0 miles
Clouds Overcast 8000 ft
Dew Point 52 °F
Humidity 79%
Rainfall 0.04 in
Snow Depth Not available.
UV 0 out of 12
Pollen 8.50 out of 12
Air Quality Not available.
Flu Activity Local Activity
METAR KFCM 190253Z 16007KT 8SM -RA OVC080 16/13 A2990 RMK AO2 RAB24 SLP124 P0000 60000 T01560128 51005

More Conditions Fewer Conditions

10-Day Weather Forecast

Almanac

Astronomy

Apr. 18, 2015 Rise Set
Actual Time
Civil Twilight
Nautical Twilight
Astronomical Twilight
Moon
Length of Visible Light
Length of Day
Tomorrow will be .
, % of the Moon is Illuminated

Today's Extremes

State Highs State Lows

Community

WunderPhotos

Upload Photos

1,814,710 photos uploaded!

WunderBlogs® & News

Nearby

Air Quality

  Air Quality AQ Index Pollutant
Not available.

Snow Depth

Station Depth Elevation

Earthquake Activity

City Distance Mag. Time & Date
Minimum magnitude displayed is 2.5.

Coastal Water Temperatures

Place Temperature

Stations

Nearby Weather Stations

Station Location Temp. Windchill Dew Point Humidity Wind Precip. Elev Updated Type